sensor_id;sensor_type;location;lat;lon;timestamp;temperature;humidity
48376;DHT22;34178;50.904;11.560;2023-01-24T00:00:11;2.50;99.90
48376;DHT22;34178;50.904;11.560;2023-01-24T00:02:37;2.50;99.90
48376;DHT22;34178;50.904;11.560;2023-01-24T00:05:04;2.50;99.90
48376;DHT22;34178;50.904;11.560;2023-01-24T00:07:30;2.50;99.90
48376;DHT22;34178;50.904;11.560;2023-01-24T00:09:55;2.50;99.90
48376;DHT22;34178;50.904;11.560;2023-01-24T00:12:21;2.50;99.90
48376;DHT22;34178;50.904;11.560;2023-01-24T00:14:47;2.50;99.90
48376;DHT22;34178;50.904;11.560;2023-01-24T00:17:13;2.50;99.90
48376;DHT22;34178;50.904;11.560;2023-01-24T00:19:39;2.50;99.90
48376;DHT22;34178;50.904;11.560;2023-01-24T00:22:04;2.50;99.90
48376;DHT22;34178;50.904;11.560;2023-01-24T00:24:32;2.50;99.90
48376;DHT22;34178;50.904;11.560;2023-01-24T00:27:00;2.50;99.90
48376;DHT22;34178;50.904;11.560;2023-01-24T00:29:26;2.50;99.90
48376;DHT22;34178;50.904;11.560;2023-01-24T00:31:52;2.50;99.90
48376;DHT22;34178;50.904;11.560;2023-01-24T00:34:17;2.50;99.90
48376;DHT22;34178;50.904;11.560;2023-01-24T00:36:43;2.50;99.90
48376;DHT22;34178;50.904;11.560;2023-01-24T00:39:10;2.50;99.90
48376;DHT22;34178;50.904;11.560;2023-01-24T00:41:36;2.60;99.90
48376;DHT22;34178;50.904;11.560;2023-01-24T00:44:02;2.50;99.90
48376;DHT22;34178;50.904;11.560;2023-01-24T00:46:28;2.50;99.90
48376;DHT22;34178;50.904;11.560;2023-01-24T00:48:53;2.50;99.90
48376;DHT22;34178;50.904;11.560;2023-01-24T00:51:19;2.50;99.90
48376;DHT22;34178;50.904;11.560;2023-01-24T00:53:44;2.50;99.90
48376;DHT22;34178;50.904;11.560;2023-01-24T00:56:10;2.50;99.90
48376;DHT22;34178;50.904;11.560;2023-01-24T00:58:36;2.50;99.90
48376;DHT22;34178;50.904;11.560;2023-01-24T01:01:02;2.50;99.90
48376;DHT22;34178;50.904;11.560;2023-01-24T01:03:28;2.50;99.90
48376;DHT22;34178;50.904;11.560;2023-01-24T01:06:09;2.50;99.90
48376;DHT22;34178;50.904;11.560;2023-01-24T01:08:37;2.50;99.90
48376;DHT22;34178;50.904;11.560;2023-01-24T01:11:03;2.50;99.90
48376;DHT22;34178;50.904;11.560;2023-01-24T01:13:29;2.50;99.90
48376;DHT22;34178;50.904;11.560;2023-01-24T01:16:07;2.50;99.90
48376;DHT22;34178;50.904;11.560;2023-01-24T01:18:34;2.50;99.90
48376;DHT22;34178;50.904;11.560;2023-01-24T01:21:00;2.50;99.90
48376;DHT22;34178;50.904;11.560;2023-01-24T01:23:26;2.50;99.90
48376;DHT22;34178;50.904;11.560;2023-01-24T01:25:52;2.50;99.90
48376;DHT22;34178;50.904;11.560;2023-01-24T01:28:17;2.50;99.90
48376;DHT22;34178;50.904;11.560;2023-01-24T01:30:48;2.50;99.90
48376;DHT22;34178;50.904;11.560;2023-01-24T01:33:13;2.50;99.90
48376;DHT22;34178;50.904;11.560;2023-01-24T01:35:39;2.50;99.90
48376;DHT22;34178;50.904;11.560;2023-01-24T01:38:05;2.50;99.90
48376;DHT22;34178;50.904;11.560;2023-01-24T01:40:31;2.50;99.90
48376;DHT22;34178;50.904;11.560;2023-01-24T01:42:57;2.50;99.90
48376;DHT22;34178;50.904;11.560;2023-01-24T01:45:45;2.50;99.90
48376;DHT22;34178;50.904;11.560;2023-01-24T01:53:51;2.50;99.90
48376;DHT22;34178;50.904;11.560;2023-01-24T01:56:28;2.50;99.90
48376;DHT22;34178;50.904;11.560;2023-01-24T01:58:57;2.50;99.90
48376;DHT22;34178;50.904;11.560;2023-01-24T02:01:23;2.50;99.90
48376;DHT22;34178;50.904;11.560;2023-01-24T02:03:55;2.50;99.90
48376;DHT22;34178;50.904;11.560;2023-01-24T02:09:07;2.40;99.90
48376;DHT22;34178;50.904;11.560;2023-01-24T02:11:34;2.40;99.90
48376;DHT22;34178;50.904;11.560;2023-01-24T02:14:06;2.40;99.90
48376;DHT22;34178;50.904;11.560;2023-01-24T02:16:51;2.40;99.90
48376;DHT22;34178;50.904;11.560;2023-01-24T02:22:01;2.50;99.90
48376;DHT22;34178;50.904;11.560;2023-01-24T02:24:33;2.50;99.90
48376;DHT22;34178;50.904;11.560;2023-01-24T02:27:01;2.50;99.90
48376;DHT22;34178;50.904;11.560;2023-01-24T02:29:27;2.50;99.90
48376;DHT22;34178;50.904;11.560;2023-01-24T02:31:59;2.50;99.90
48376;DHT22;34178;50.904;11.560;2023-01-24T02:34:26;2.50;99.90
48376;DHT22;34178;50.904;11.560;2023-01-24T02:36:57;2.50;99.90
48376;DHT22;34178;50.904;11.560;2023-01-24T02:39:31;2.50;99.90
48376;DHT22;34178;50.904;11.560;2023-01-24T02:42:23;2.40;99.90
48376;DHT22;34178;50.904;11.560;2023-01-24T02:45:10;2.50;99.90
48376;DHT22;34178;50.904;11.560;2023-01-24T02:47:44;2.50;99.90
48376;DHT22;34178;50.904;11.560;2023-01-24T02:50:11;2.50;99.90
48376;DHT22;34178;50.904;11.560;2023-01-24T02:52:37;2.50;99.90
48376;DHT22;34178;50.904;11.560;2023-01-24T02:55:21;2.50;99.90
48376;DHT22;34178;50.904;11.560;2023-01-24T02:57:46;2.50;99.90
48376;DHT22;34178;50.904;11.560;2023-01-24T03:00:34;2.50;99.90
48376;DHT22;34178;50.904;11.560;2023-01-24T03:03:00;2.50;99.90
48376;DHT22;34178;50.904;11.560;2023-01-24T03:05:26;2.50;99.90
48376;DHT22;34178;50.904;11.560;2023-01-24T03:08:06;2.50;99.90
48376;DHT22;34178;50.904;11.560;2023-01-24T03:10:33;2.50;99.90
48376;DHT22;34178;50.904;11.560;2023-01-24T03:12:59;2.50;99.90
48376;DHT22;34178;50.904;11.560;2023-01-24T03:15:44;2.50;99.90
48376;DHT22;34178;50.904;11.560;2023-01-24T03:18:28;2.50;99.90
48376;DHT22;34178;50.904;11.560;2023-01-24T03:21:12;2.60;99.90
48376;DHT22;34178;50.904;11.560;2023-01-24T03:23:56;2.60;99.90
48376;DHT22;34178;50.904;11.560;2023-01-24T03:26:40;2.50;99.90
48376;DHT22;34178;50.904;11.560;2023-01-24T03:29:24;2.50;99.90
48376;DHT22;34178;50.904;11.560;2023-01-24T03:32:08;2.60;99.90
48376;DHT22;34178;50.904;11.560;2023-01-24T03:34:52;2.50;99.90
48376;DHT22;34178;50.904;11.560;2023-01-24T03:37:20;2.50;99.90
48376;DHT22;34178;50.904;11.560;2023-01-24T03:40:15;2.50;99.90
48376;DHT22;34178;50.904;11.560;2023-01-24T03:42:41;2.50;99.90
48376;DHT22;34178;50.904;11.560;2023-01-24T03:45:20;2.50;99.90
48376;DHT22;34178;50.904;11.560;2023-01-24T03:48:07;2.50;99.90
48376;DHT22;34178;50.904;11.560;2023-01-24T03:50:42;2.40;99.90
48376;DHT22;34178;50.904;11.560;2023-01-24T03:53:29;2.40;99.90
48376;DHT22;34178;50.904;11.560;2023-01-24T03:55:57;2.40;99.90
48376;DHT22;34178;50.904;11.560;2023-01-24T03:58:25;2.40;99.90
48376;DHT22;34178;50.904;11.560;2023-01-24T04:00:52;2.40;99.90
48376;DHT22;34178;50.904;11.560;2023-01-24T04:03:18;2.40;99.90
48376;DHT22;34178;50.904;11.560;2023-01-24T04:05:46;2.40;99.90
48376;DHT22;34178;50.904;11.560;2023-01-24T04:08:12;2.40;99.90
48376;DHT22;34178;50.904;11.560;2023-01-24T04:10:38;2.40;99.90
48376;DHT22;34178;50.904;11.560;2023-01-24T04:13:04;2.40;99.90
48376;DHT22;34178;50.904;11.560;2023-01-24T04:15:31;2.50;99.90
48376;DHT22;34178;50.904;11.560;2023-01-24T04:17:59;2.50;99.90
48376;DHT22;34178;50.904;11.560;2023-01-24T04:20:26;2.50;99.90
48376;DHT22;34178;50.904;11.560;2023-01-24T04:22:52;2.40;99.90
48376;DHT22;34178;50.904;11.560;2023-01-24T04:25:18;2.40;99.90
48376;DHT22;34178;50.904;11.560;2023-01-24T04:27:44;2.50;99.90
48376;DHT22;34178;50.904;11.560;2023-01-24T04:30:12;2.50;99.90
48376;DHT22;34178;50.904;11.560;2023-01-24T04:32:38;2.50;99.90
48376;DHT22;34178;50.904;11.560;2023-01-24T04:35:05;2.50;99.90
48376;DHT22;34178;50.904;11.560;2023-01-24T04:37:32;2.50;99.90
48376;DHT22;34178;50.904;11.560;2023-01-24T04:39:58;2.50;99.90
48376;DHT22;34178;50.904;11.560;2023-01-24T04:42:24;2.50;99.90
48376;DHT22;34178;50.904;11.560;2023-01-24T04:44:49;2.50;99.90
48376;DHT22;34178;50.904;11.560;2023-01-24T04:47:15;2.50;99.90
48376;DHT22;34178;50.904;11.560;2023-01-24T04:49:41;2.50;99.90
48376;DHT22;34178;50.904;11.560;2023-01-24T04:52:10;2.50;99.90
48376;DHT22;34178;50.904;11.560;2023-01-24T04:54:36;2.40;99.90
48376;DHT22;34178;50.904;11.560;2023-01-24T04:57:01;2.40;99.90
48376;DHT22;34178;50.904;11.560;2023-01-24T04:59:27;2.40;99.90
48376;DHT22;34178;50.904;11.560;2023-01-24T05:01:53;2.40;99.90
48376;DHT22;34178;50.904;11.560;2023-01-24T05:04:18;2.40;99.90
48376;DHT22;34178;50.904;11.560;2023-01-24T05:06:44;2.40;99.90
48376;DHT22;34178;50.904;11.560;2023-01-24T05:09:10;2.40;99.90
48376;DHT22;34178;50.904;11.560;2023-01-24T05:11:35;2.40;99.90
48376;DHT22;34178;50.904;11.560;2023-01-24T05:14:02;2.40;99.90
48376;DHT22;34178;50.904;11.560;2023-01-24T05:16:27;2.40;99.90
48376;DHT22;34178;50.904;11.560;2023-01-24T05:18:53;2.50;99.90
48376;DHT22;34178;50.904;11.560;2023-01-24T05:21:19;2.50;99.90
48376;DHT22;34178;50.904;11.560;2023-01-24T05:23:49;2.50;99.90
48376;DHT22;34178;50.904;11.560;2023-01-24T05:26:16;2.50;99.90
48376;DHT22;34178;50.904;11.560;2023-01-24T05:28:41;2.40;99.90
48376;DHT22;34178;50.904;11.560;2023-01-24T05:31:07;2.50;99.90
48376;DHT22;34178;50.904;11.560;2023-01-24T05:33:34;2.40;99.90
48376;DHT22;34178;50.904;11.560;2023-01-24T05:36:01;2.50;99.90
48376;DHT22;34178;50.904;11.560;2023-01-24T05:38:27;2.40;99.90
48376;DHT22;34178;50.904;11.560;2023-01-24T05:40:53;2.40;99.90
48376;DHT22;34178;50.904;11.560;2023-01-24T05:43:23;2.40;99.90
48376;DHT22;34178;50.904;11.560;2023-01-24T05:45:49;2.40;99.90
48376;DHT22;34178;50.904;11.560;2023-01-24T05:48:14;2.40;99.90
48376;DHT22;34178;50.904;11.560;2023-01-24T05:50:40;2.40;99.90
48376;DHT22;34178;50.904;11.560;2023-01-24T05:53:06;2.40;99.90
48376;DHT22;34178;50.904;11.560;2023-01-24T05:55:31;2.40;99.90
48376;DHT22;34178;50.904;11.560;2023-01-24T05:57:58;2.40;99.90
48376;DHT22;34178;50.904;11.560;2023-01-24T06:00:25;2.40;99.90
48376;DHT22;34178;50.904;11.560;2023-01-24T06:02:51;2.40;99.90
48376;DHT22;34178;50.904;11.560;2023-01-24T06:05:17;2.40;99.90
48376;DHT22;34178;50.904;11.560;2023-01-24T06:07:42;2.40;99.90
48376;DHT22;34178;50.904;11.560;2023-01-24T06:10:08;2.40;99.90
48376;DHT22;34178;50.904;11.560;2023-01-24T06:12:34;2.50;99.90
48376;DHT22;34178;50.904;11.560;2023-01-24T06:15:00;2.50;99.90
48376;DHT22;34178;50.904;11.560;2023-01-24T06:17:25;2.40;99.90
48376;DHT22;34178;50.904;11.560;2023-01-24T06:19:51;2.40;99.90
48376;DHT22;34178;50.904;11.560;2023-01-24T06:24:59;2.40;99.90
48376;DHT22;34178;50.904;11.560;2023-01-24T06:27:24;2.40;99.90
48376;DHT22;34178;50.904;11.560;2023-01-24T06:29:50;2.40;99.90
48376;DHT22;34178;50.904;11.560;2023-01-24T06:38:18;2.50;99.90
48376;DHT22;34178;50.904;11.560;2023-01-24T06:40:46;2.50;99.90
48376;DHT22;34178;50.904;11.560;2023-01-24T06:43:12;2.50;99.90
48376;DHT22;34178;50.904;11.560;2023-01-24T06:45:37;2.50;99.90
48376;DHT22;34178;50.904;11.560;2023-01-24T06:48:03;2.50;99.90
48376;DHT22;34178;50.904;11.560;2023-01-24T06:50:29;2.50;99.90
48376;DHT22;34178;50.904;11.560;2023-01-24T06:52:57;2.50;99.90
48376;DHT22;34178;50.904;11.560;2023-01-24T06:55:23;2.40;99.90
48376;DHT22;34178;50.904;11.560;2023-01-24T06:57:59;2.40;99.90
48376;DHT22;34178;50.904;11.560;2023-01-24T07:00:26;2.40;99.90
48376;DHT22;34178;50.904;11.560;2023-01-24T07:03:03;2.40;99.90
48376;DHT22;34178;50.904;11.560;2023-01-24T07:05:32;2.40;99.90
48376;DHT22;34178;50.904;11.560;2023-01-24T07:07:59;2.40;99.90
48376;DHT22;34178;50.904;11.560;2023-01-24T07:10:25;2.40;99.90
48376;DHT22;34178;50.904;11.560;2023-01-24T07:12:51;2.40;99.90
48376;DHT22;34178;50.904;11.560;2023-01-24T07:15:17;2.40;99.90
48376;DHT22;34178;50.904;11.560;2023-01-24T07:17:43;2.50;99.90
48376;DHT22;34178;50.904;11.560;2023-01-24T07:20:10;2.50;99.90
48376;DHT22;34178;50.904;11.560;2023-01-24T07:22:39;2.50;99.90
48376;DHT22;34178;50.904;11.560;2023-01-24T07:25:14;2.50;99.90
48376;DHT22;34178;50.904;11.560;2023-01-24T07:27:41;2.50;99.90
48376;DHT22;34178;50.904;11.560;2023-01-24T07:30:09;2.50;99.90
48376;DHT22;34178;50.904;11.560;2023-01-24T07:32:35;2.50;99.90
48376;DHT22;34178;50.904;11.560;2023-01-24T07:35:00;2.60;99.90
48376;DHT22;34178;50.904;11.560;2023-01-24T07:37:26;2.60;99.90
48376;DHT22;34178;50.904;11.560;2023-01-24T07:39:52;2.60;99.90
48376;DHT22;34178;50.904;11.560;2023-01-24T07:42:17;2.60;99.90
48376;DHT22;34178;50.904;11.560;2023-01-24T07:44:43;2.60;99.90
48376;DHT22;34178;50.904;11.560;2023-01-24T07:47:09;2.60;99.90
48376;DHT22;34178;50.904;11.560;2023-01-24T07:49:34;2.60;99.90
48376;DHT22;34178;50.904;11.560;2023-01-24T07:52:00;2.60;99.90
48376;DHT22;34178;50.904;11.560;2023-01-24T07:54:25;2.60;99.90
48376;DHT22;34178;50.904;11.560;2023-01-24T07:56:51;2.60;99.90
48376;DHT22;34178;50.904;11.560;2023-01-24T07:59:17;2.60;99.90
48376;DHT22;34178;50.904;11.560;2023-01-24T08:01:42;2.70;99.90
48376;DHT22;34178;50.904;11.560;2023-01-24T08:04:09;2.70;99.90
48376;DHT22;34178;50.904;11.560;2023-01-24T08:06:35;2.60;99.90
48376;DHT22;34178;50.904;11.560;2023-01-24T08:09:01;2.60;99.90
48376;DHT22;34178;50.904;11.560;2023-01-24T08:11:27;2.70;99.90
48376;DHT22;34178;50.904;11.560;2023-01-24T08:13:52;2.70;99.90
48376;DHT22;34178;50.904;11.560;2023-01-24T08:16:20;2.70;99.90
48376;DHT22;34178;50.904;11.560;2023-01-24T08:18:49;2.60;99.90
48376;DHT22;34178;50.904;11.560;2023-01-24T08:21:14;2.60;99.90
48376;DHT22;34178;50.904;11.560;2023-01-24T08:23:40;2.70;99.90
48376;DHT22;34178;50.904;11.560;2023-01-24T08:26:06;2.70;99.90
48376;DHT22;34178;50.904;11.560;2023-01-24T08:28:32;2.70;99.90
48376;DHT22;34178;50.904;11.560;2023-01-24T08:30:59;2.70;99.90
48376;DHT22;34178;50.904;11.560;2023-01-24T08:33:25;2.70;99.90
48376;DHT22;34178;50.904;11.560;2023-01-24T08:35:50;2.80;99.90
48376;DHT22;34178;50.904;11.560;2023-01-24T08:38:16;2.80;99.90
48376;DHT22;34178;50.904;11.560;2023-01-24T08:40:43;2.80;99.90
48376;DHT22;34178;50.904;11.560;2023-01-24T08:43:09;2.90;99.90
48376;DHT22;34178;50.904;11.560;2023-01-24T08:45:35;2.80;99.90
48376;DHT22;34178;50.904;11.560;2023-01-24T08:48:01;2.90;99.90
48376;DHT22;34178;50.904;11.560;2023-01-24T08:50:27;2.90;99.90
48376;DHT22;34178;50.904;11.560;2023-01-24T08:52:56;3.00;99.90
48376;DHT22;34178;50.904;11.560;2023-01-24T08:55:23;3.00;99.90
48376;DHT22;34178;50.904;11.560;2023-01-24T08:57:48;3.00;99.90
48376;DHT22;34178;50.904;11.560;2023-01-24T09:00:15;2.90;99.90
48376;DHT22;34178;50.904;11.560;2023-01-24T09:02:40;3.00;99.90
48376;DHT22;34178;50.904;11.560;2023-01-24T09:05:07;3.00;99.90
48376;DHT22;34178;50.904;11.560;2023-01-24T09:07:34;2.90;99.90
48376;DHT22;34178;50.904;11.560;2023-01-24T09:10:06;2.90;99.90
48376;DHT22;34178;50.904;11.560;2023-01-24T09:12:31;3.00;99.90
48376;DHT22;34178;50.904;11.560;2023-01-24T09:14:59;3.00;99.90
48376;DHT22;34178;50.904;11.560;2023-01-24T09:17:25;3.00;99.90
48376;DHT22;34178;50.904;11.560;2023-01-24T09:19:50;3.00;99.90
48376;DHT22;34178;50.904;11.560;2023-01-24T09:22:16;3.10;99.90
48376;DHT22;34178;50.904;11.560;2023-01-24T09:24:42;3.10;99.90
48376;DHT22;34178;50.904;11.560;2023-01-24T09:27:10;3.10;99.90
48376;DHT22;34178;50.904;11.560;2023-01-24T09:29:36;3.10;99.90
48376;DHT22;34178;50.904;11.560;2023-01-24T09:32:01;3.10;99.90
48376;DHT22;34178;50.904;11.560;2023-01-24T09:34:27;3.10;99.90
48376;DHT22;34178;50.904;11.560;2023-01-24T09:36:52;3.10;99.90
48376;DHT22;34178;50.904;11.560;2023-01-24T09:39:18;3.10;99.90
48376;DHT22;34178;50.904;11.560;2023-01-24T09:41:46;3.10;99.90
48376;DHT22;34178;50.904;11.560;2023-01-24T09:44:46;3.10;99.90
48376;DHT22;34178;50.904;11.560;2023-01-24T09:47:39;3.10;99.90
48376;DHT22;34178;50.904;11.560;2023-01-24T09:50:21;3.20;99.90
48376;DHT22;34178;50.904;11.560;2023-01-24T09:52:52;3.20;99.90
48376;DHT22;34178;50.904;11.560;2023-01-24T09:55:28;3.20;99.90
48376;DHT22;34178;50.904;11.560;2023-01-24T09:58:04;3.20;99.90
48376;DHT22;34178;50.904;11.560;2023-01-24T10:00:36;3.20;99.90
48376;DHT22;34178;50.904;11.560;2023-01-24T10:03:18;3.30;99.90
48376;DHT22;34178;50.904;11.560;2023-01-24T10:05:51;3.30;99.90
48376;DHT22;34178;50.904;11.560;2023-01-24T10:08:58;3.40;99.90
48376;DHT22;34178;50.904;11.560;2023-01-24T10:12:05;3.40;99.90
48376;DHT22;34178;50.904;11.560;2023-01-24T10:23:02;3.40;99.90
48376;DHT22;34178;50.904;11.560;2023-01-24T10:28:27;3.40;99.90
48376;DHT22;34178;50.904;11.560;2023-01-24T10:30:58;3.40;99.90
48376;DHT22;34178;50.904;11.560;2023-01-24T10:33:29;3.40;99.90
48376;DHT22;34178;50.904;11.560;2023-01-24T10:39:00;3.50;99.90
48376;DHT22;34178;50.904;11.560;2023-01-24T10:41:32;3.50;99.90
48376;DHT22;34178;50.904;11.560;2023-01-24T10:44:24;3.50;99.90
48376;DHT22;34178;50.904;11.560;2023-01-24T10:47:13;3.50;99.90
48376;DHT22;34178;50.904;11.560;2023-01-24T10:49:51;3.50;99.90
48376;DHT22;34178;50.904;11.560;2023-01-24T10:52:20;3.50;99.90
48376;DHT22;34178;50.904;11.560;2023-01-24T10:57:30;3.50;99.90
48376;DHT22;34178;50.904;11.560;2023-01-24T11:00:46;3.50;99.90
48376;DHT22;34178;50.904;11.560;2023-01-24T11:03:02;3.50;99.90
48376;DHT22;34178;50.904;11.560;2023-01-24T11:05:39;3.60;99.90
48376;DHT22;34178;50.904;11.560;2023-01-24T11:08:05;3.70;99.90
48376;DHT22;34178;50.904;11.560;2023-01-24T11:10:37;3.70;99.90
48376;DHT22;34178;50.904;11.560;2023-01-24T11:15:55;3.90;99.90
48376;DHT22;34178;50.904;11.560;2023-01-24T11:18:27;3.90;99.90
48376;DHT22;34178;50.904;11.560;2023-01-24T11:21:11;3.90;99.90
48376;DHT22;34178;50.904;11.560;2023-01-24T11:23:38;3.90;99.90
48376;DHT22;34178;50.904;11.560;2023-01-24T11:26:06;3.90;99.90
48376;DHT22;34178;50.904;11.560;2023-01-24T11:28:34;3.90;99.90
48376;DHT22;34178;50.904;11.560;2023-01-24T11:31:22;4.00;99.90
48376;DHT22;34178;50.904;11.560;2023-01-24T11:36:53;4.00;99.90
48376;DHT22;34178;50.904;11.560;2023-01-24T11:45:03;3.80;99.90
48376;DHT22;34178;50.904;11.560;2023-01-24T11:47:49;3.90;99.90
48376;DHT22;34178;50.904;11.560;2023-01-24T11:56:14;3.80;99.90
48376;DHT22;34178;50.904;11.560;2023-01-24T12:16:04;3.70;99.90
48376;DHT22;34178;50.904;11.560;2023-01-24T12:21:24;3.60;99.90
48376;DHT22;34178;50.904;11.560;2023-01-24T12:26:48;3.50;99.90
48376;DHT22;34178;50.904;11.560;2023-01-24T12:29:25;3.60;99.90
48376;DHT22;34178;50.904;11.560;2023-01-24T12:32:10;3.60;99.90
48376;DHT22;34178;50.904;11.560;2023-01-24T12:37:34;3.60;99.90
48376;DHT22;34178;50.904;11.560;2023-01-24T12:51:09;3.60;99.90
48376;DHT22;34178;50.904;11.560;2023-01-24T12:56:24;3.60;99.90
48376;DHT22;34178;50.904;11.560;2023-01-24T12:58:52;3.60;99.90
48376;DHT22;34178;50.904;11.560;2023-01-24T13:01:36;3.60;99.90
48376;DHT22;34178;50.904;11.560;2023-01-24T13:07:26;3.50;99.90
48376;DHT22;34178;50.904;11.560;2023-01-24T13:12:40;3.40;99.90
48376;DHT22;34178;50.904;11.560;2023-01-24T13:15:36;3.40;99.90
48376;DHT22;34178;50.904;11.560;2023-01-24T13:21:05;3.30;99.90
48376;DHT22;34178;50.904;11.560;2023-01-24T13:32:30;3.30;99.90
48376;DHT22;34178;50.904;11.560;2023-01-24T13:35:00;3.30;99.90
48376;DHT22;34178;50.904;11.560;2023-01-24T13:37:29;3.30;99.90
48376;DHT22;34178;50.904;11.560;2023-01-24T13:40:05;3.20;99.90
48376;DHT22;34178;50.904;11.560;2023-01-24T13:42:36;3.20;99.90
48376;DHT22;34178;50.904;11.560;2023-01-24T13:47:56;3.20;99.90
48376;DHT22;34178;50.904;11.560;2023-01-24T13:50:24;3.20;99.90
48376;DHT22;34178;50.904;11.560;2023-01-24T13:52:54;3.20;99.90
48376;DHT22;34178;50.904;11.560;2023-01-24T14:00:25;3.20;99.90
48376;DHT22;34178;50.904;11.560;2023-01-24T14:08:00;3.20;99.90
48376;DHT22;34178;50.904;11.560;2023-01-24T14:10:42;3.20;99.90
48376;DHT22;34178;50.904;11.560;2023-01-24T14:16:11;3.10;99.90
48376;DHT22;34178;50.904;11.560;2023-01-24T14:18:49;3.20;99.90
48376;DHT22;34178;50.904;11.560;2023-01-24T14:21:21;3.10;99.90
48376;DHT22;34178;50.904;11.560;2023-01-24T14:23:52;3.10;99.90
48376;DHT22;34178;50.904;11.560;2023-01-24T14:26:22;3.10;99.90
48376;DHT22;34178;50.904;11.560;2023-01-24T14:28:54;3.10;99.90
48376;DHT22;34178;50.904;11.560;2023-01-24T14:31:34;3.10;99.90
48376;DHT22;34178;50.904;11.560;2023-01-24T14:34:20;3.10;99.90
48376;DHT22;34178;50.904;11.560;2023-01-24T14:36:59;3.10;99.90
48376;DHT22;34178;50.904;11.560;2023-01-24T14:39:26;3.10;99.90
48376;DHT22;34178;50.904;11.560;2023-01-24T14:44:57;3.10;99.90
48376;DHT22;34178;50.904;11.560;2023-01-24T14:47:17;3.00;99.90
48376;DHT22;34178;50.904;11.560;2023-01-24T14:49:54;3.10;99.90
48376;DHT22;34178;50.904;11.560;2023-01-24T14:52:25;3.00;99.90
48376;DHT22;34178;50.904;11.560;2023-01-24T14:54:59;3.10;99.90
48376;DHT22;34178;50.904;11.560;2023-01-24T14:57:32;3.10;99.90
48376;DHT22;34178;50.904;11.560;2023-01-24T15:00:17;3.00;99.90
48376;DHT22;34178;50.904;11.560;2023-01-24T15:02:58;3.00;99.90
48376;DHT22;34178;50.904;11.560;2023-01-24T15:05:26;3.00;99.90
48376;DHT22;34178;50.904;11.560;2023-01-24T15:07:52;3.00;99.90
48376;DHT22;34178;50.904;11.560;2023-01-24T15:10:34;2.90;99.90
48376;DHT22;34178;50.904;11.560;2023-01-24T15:13:03;2.90;99.90
48376;DHT22;34178;50.904;11.560;2023-01-24T15:15:30;2.90;99.90
48376;DHT22;34178;50.904;11.560;2023-01-24T15:18:03;2.90;99.90
48376;DHT22;34178;50.904;11.560;2023-01-24T15:20:30;2.90;99.90
48376;DHT22;34178;50.904;11.560;2023-01-24T15:23:00;2.90;99.90
48376;DHT22;34178;50.904;11.560;2023-01-24T15:25:33;2.90;99.90
48376;DHT22;34178;50.904;11.560;2023-01-24T15:28:23;2.90;99.90
48376;DHT22;34178;50.904;11.560;2023-01-24T15:30:56;2.90;99.90
48376;DHT22;34178;50.904;11.560;2023-01-24T15:33:24;2.90;99.90
48376;DHT22;34178;50.904;11.560;2023-01-24T15:35:51;2.90;99.90
48376;DHT22;34178;50.904;11.560;2023-01-24T15:38:27;2.80;99.90
48376;DHT22;34178;50.904;11.560;2023-01-24T15:41:16;2.80;99.90
48376;DHT22;34178;50.904;11.560;2023-01-24T15:46:26;2.80;99.90
48376;DHT22;34178;50.904;11.560;2023-01-24T15:51:42;2.80;99.90
48376;DHT22;34178;50.904;11.560;2023-01-24T15:54:13;2.80;99.90
48376;DHT22;34178;50.904;11.560;2023-01-24T15:56:40;2.80;99.90
48376;DHT22;34178;50.904;11.560;2023-01-24T15:59:16;2.80;99.90
48376;DHT22;34178;50.904;11.560;2023-01-24T16:01:42;2.70;99.90
48376;DHT22;34178;50.904;11.560;2023-01-24T16:04:19;2.80;99.90
48376;DHT22;34178;50.904;11.560;2023-01-24T16:06:45;2.70;99.90
48376;DHT22;34178;50.904;11.560;2023-01-24T16:09:12;2.70;99.90
48376;DHT22;34178;50.904;11.560;2023-01-24T16:11:40;2.70;99.90
48376;DHT22;34178;50.904;11.560;2023-01-24T16:14:07;2.70;99.90
48376;DHT22;34178;50.904;11.560;2023-01-24T16:16:36;2.70;99.90
48376;DHT22;34178;50.904;11.560;2023-01-24T16:19:12;2.70;99.90
48376;DHT22;34178;50.904;11.560;2023-01-24T16:21:38;2.80;99.90
48376;DHT22;34178;50.904;11.560;2023-01-24T16:24:04;2.80;99.90
48376;DHT22;34178;50.904;11.560;2023-01-24T16:26:30;2.70;99.90
48376;DHT22;34178;50.904;11.560;2023-01-24T16:28:55;2.80;99.90
48376;DHT22;34178;50.904;11.560;2023-01-24T16:31:21;2.70;99.90
48376;DHT22;34178;50.904;11.560;2023-01-24T16:33:47;2.60;99.90
48376;DHT22;34178;50.904;11.560;2023-01-24T16:36:13;2.60;99.90
48376;DHT22;34178;50.904;11.560;2023-01-24T16:38:43;2.60;99.90
48376;DHT22;34178;50.904;11.560;2023-01-24T16:41:12;2.60;99.90
48376;DHT22;34178;50.904;11.560;2023-01-24T16:43:41;2.60;99.90
48376;DHT22;34178;50.904;11.560;2023-01-24T16:46:19;2.60;99.90
48376;DHT22;34178;50.904;11.560;2023-01-24T16:48:45;2.60;99.90
48376;DHT22;34178;50.904;11.560;2023-01-24T16:51:13;2.60;99.90
48376;DHT22;34178;50.904;11.560;2023-01-24T16:53:39;2.60;99.90
48376;DHT22;34178;50.904;11.560;2023-01-24T16:56:05;2.60;99.90
48376;DHT22;34178;50.904;11.560;2023-01-24T16:58:31;2.60;99.90
48376;DHT22;34178;50.904;11.560;2023-01-24T17:00:56;2.60;99.90
48376;DHT22;34178;50.904;11.560;2023-01-24T17:03:22;2.60;99.90
48376;DHT22;34178;50.904;11.560;2023-01-24T17:05:48;2.50;99.90
48376;DHT22;34178;50.904;11.560;2023-01-24T17:08:14;2.60;99.90
48376;DHT22;34178;50.904;11.560;2023-01-24T17:10:40;2.60;99.90
48376;DHT22;34178;50.904;11.560;2023-01-24T17:13:07;2.60;99.90
48376;DHT22;34178;50.904;11.560;2023-01-24T17:15:37;2.60;99.90
48376;DHT22;34178;50.904;11.560;2023-01-24T17:18:04;2.60;99.90
48376;DHT22;34178;50.904;11.560;2023-01-24T17:20:30;2.60;99.90
48376;DHT22;34178;50.904;11.560;2023-01-24T17:22:57;2.60;99.90
48376;DHT22;34178;50.904;11.560;2023-01-24T17:25:25;2.60;99.90
48376;DHT22;34178;50.904;11.560;2023-01-24T17:27:51;2.60;99.90
48376;DHT22;34178;50.904;11.560;2023-01-24T17:30:17;2.60;99.90
48376;DHT22;34178;50.904;11.560;2023-01-24T17:32:43;2.60;99.90
48376;DHT22;34178;50.904;11.560;2023-01-24T17:35:09;2.60;99.90
48376;DHT22;34178;50.904;11.560;2023-01-24T17:37:35;2.60;99.90
48376;DHT22;34178;50.904;11.560;2023-01-24T17:40:01;2.50;99.90
48376;DHT22;34178;50.904;11.560;2023-01-24T17:42:26;2.50;99.90
48376;DHT22;34178;50.904;11.560;2023-01-24T17:44:52;2.60;99.90
48376;DHT22;34178;50.904;11.560;2023-01-24T17:47:18;2.60;99.90
48376;DHT22;34178;50.904;11.560;2023-01-24T17:49:43;2.50;99.90
48376;DHT22;34178;50.904;11.560;2023-01-24T17:52:09;2.50;99.90
48376;DHT22;34178;50.904;11.560;2023-01-24T17:54:35;2.50;99.90
48376;DHT22;34178;50.904;11.560;2023-01-24T17:57:00;2.50;99.90
48376;DHT22;34178;50.904;11.560;2023-01-24T17:59:26;2.50;99.90
48376;DHT22;34178;50.904;11.560;2023-01-24T18:01:52;2.50;99.90